Time;durP1;ratioP1;P1;durP2;ratioP2;P2;SDS_P1;SDS_P2;PMS_P1;PMS_P2;Temp;Humidity;BMP_temperature;BMP_pressure;BME280_temperature;BME280_humidity;BME280_pressure;Samples;Min_cycle;Max_cycle;Signal;HPM_P1;HPM_P2
2023/05/23 00:01:45;;;;;;;8.55;6.53;;;;;;;14.96;100.00;100198.31;4824247;29;20368;-79
2023/05/23 00:04:15;;;;;;;10.10;8.10;;;;;;;15.25;100.00;100238.22;4823886;29;20038;-79
2023/05/23 00:06:45;;;;;;;11.43;8.68;;;;;;;14.87;100.00;100185.28;4804981;29;20436;-78
2023/05/23 00:09:13;;;;;;;9.60;6.53;;;;;;;14.74;100.00;100174.09;4823734;29;20109;-78
2023/05/23 00:11:38;;;;;;;9.18;6.22;;;;;;;14.77;100.00;100167.88;4823494;29;20035;-79
2023/05/23 00:14:07;;;;;;;7.30;5.43;;;;;;;15.13;100.00;100197.06;4823328;29;20095;-80
2023/05/23 00:16:32;;;;;;;7.38;5.85;;;;;;;14.55;100.00;100096.16;4825049;29;20030;-79
2023/05/23 00:18:58;;;;;;;21.77;5.68;;;;;;;15.25;100.00;100193.28;4837328;29;20748;-79
2023/05/23 00:21:23;;;;;;;8.95;5.47;;;;;;;15.45;100.00;100214.81;4829049;29;20033;-79
2023/05/23 00:23:49;;;;;;;5.57;3.53;;;;;;;15.31;100.00;100199.28;4805878;29;20038;-79
2023/05/23 00:26:14;;;;;;;5.70;4.18;;;;;;;15.23;100.00;100195.94;4824323;29;20041;-77
2023/05/23 00:28:40;;;;;;;7.53;4.15;;;;;;;15.45;100.00;100220.09;4822515;29;20087;-77
2023/05/23 00:31:06;;;;;;;5.45;3.13;;;;;;;15.48;100.00;100221.84;4785647;29;20054;-79
2023/05/23 00:33:33;;;;;;;4.40;3.05;;;;;;;15.29;100.00;100235.47;4805352;29;20493;-78
2023/05/23 00:35:59;;;;;;;6.55;3.95;;;;;;;15.27;100.00;100218.75;4804980;29;20220;-78
2023/05/23 00:38:25;;;;;;;5.32;3.75;;;;;;;15.45;100.00;100230.69;4789087;29;20042;-78
2023/05/23 00:40:51;;;;;;;6.47;3.10;;;;;;;15.56;100.00;100233.09;4805155;29;20130;-78
2023/05/23 00:43:18;;;;;;;7.18;4.53;;;;;;;15.32;100.00;100208.09;4803712;29;20457;-78
2023/05/23 00:45:43;;;;;;;6.68;4.32;;;;;;;15.17;100.00;100177.56;4804376;29;20035;-77
2023/05/23 00:48:10;;;;;;;5.68;3.42;;;;;;;15.27;100.00;100231.13;4788740;29;20037;-78
2023/05/23 00:50:36;;;;;;;7.15;3.25;;;;;;;14.80;100.00;100182.78;4804501;29;20027;-78
2023/05/23 00:53:02;;;;;;;6.05;3.72;;;;;;;14.95;100.00;100228.25;4788724;29;20123;-76
2023/05/23 00:55:29;;;;;;;5.90;3.30;;;;;;;15.05;100.00;100221.00;4804343;29;20627;-78
2023/05/23 00:57:56;;;;;;;5.60;3.42;;;;;;;15.30;100.00;100233.69;4804980;29;20030;-78
2023/05/23 01:00:25;;;;;;;4.47;2.80;;;;;;;15.19;100.00;100224.22;4805306;29;20042;-78
2023/05/23 01:02:50;;;;;;;5.15;3.28;;;;;;;15.18;100.00;100224.25;4801087;29;20027;-78
2023/05/23 01:05:17;;;;;;;5.13;3.25;;;;;;;14.98;100.00;100195.59;4804000;29;20110;-79
2023/05/23 01:07:46;;;;;;;6.18;3.33;;;;;;;14.90;100.00;100189.63;4801330;29;20031;-80
2023/05/23 01:10:17;;;;;;;6.93;4.18;;;;;;;15.04;100.00;100218.41;4800762;29;20092;-79
2023/05/23 01:13:05;;;;;;;10.27;4.63;;;;;;;15.03;100.00;100217.53;4803988;29;20039;-77
2023/05/23 01:15:46;;;;;;;5.60;3.97;;;;;;;14.59;100.00;100219.31;4803123;29;20136;-85
2023/05/23 01:18:16;;;;;;;10.88;3.97;;;;;;;14.58;100.00;100204.34;4806104;29;20031;-88
2023/05/23 01:20:49;;;;;;;9.27;4.30;;;;;;;14.97;100.00;100223.81;4805639;29;20135;-87
2023/05/23 01:23:54;;;;;;;6.80;4.28;;;;;;;14.80;100.00;100233.88;4806885;29;20046;-86
2023/05/23 01:26:47;;;;;;;8.00;4.82;;;;;;;14.67;100.00;100235.88;4801828;29;20109;-86
2023/05/23 01:29:19;;;;;;;9.57;4.55;;;;;;;14.41;100.00;100198.50;4794040;29;20054;-87
2023/05/23 01:31:46;;;;;;;6.85;3.60;;;;;;;14.32;100.00;100184.56;4780958;29;20050;-87
2023/05/23 01:34:13;;;;;;;6.38;4.43;;;;;;;14.54;100.00;100171.88;4810817;29;20383;-87
2023/05/23 01:36:41;;;;;;;7.95;4.60;;;;;;;14.65;100.00;100199.81;4805956;29;20041;-86
2023/05/23 01:39:06;;;;;;;5.93;3.90;;;;;;;14.91;100.00;100246.84;4822453;29;20156;-86
2023/05/23 01:41:32;;;;;;;6.72;4.38;;;;;;;14.47;100.00;100164.94;4803054;29;20508;-87
2023/05/23 01:43:58;;;;;;;4.15;3.42;;;;;;;14.98;100.00;100238.78;4821756;29;20030;-88
2023/05/23 01:46:25;;;;;;;4.88;3.10;;;;;;;14.66;100.00;100186.59;4821819;29;20042;-87
2023/05/23 01:48:53;;;;;;;8.15;3.97;;;;;;;14.46;100.00;100171.13;4821737;29;20030;-89
2023/05/23 01:51:21;;;;;;;7.55;3.95;;;;;;;14.24;100.00;100189.16;4805539;29;20183;-85
2023/05/23 01:53:47;;;;;;;8.75;4.78;;;;;;;14.34;100.00;100237.34;4821652;29;20053;-85
2023/05/23 01:56:13;;;;;;;5.63;3.97;;;;;;;14.12;100.00;100208.72;4804723;29;20042;-86
2023/05/23 01:58:38;;;;;;;7.05;4.18;;;;;;;14.27;100.00;100230.44;4824841;29;20390;-86
2023/05/23 02:01:04;;;;;;;6.60;4.07;;;;;;;14.01;100.00;100179.00;4808680;29;20600;-86
2023/05/23 02:03:30;;;;;;;7.72;4.50;;;;;;;13.90;100.00;100171.28;4824763;29;20425;-86
2023/05/23 02:05:55;;;;;;;6.93;5.10;;;;;;;14.20;100.00;100240.22;4821180;29;20038;-86
2023/05/23 02:08:21;;;;;;;7.05;4.80;;;;;;;13.83;100.00;100169.63;4824508;29;20041;-84
2023/05/23 02:10:46;;;;;;;8.38;3.90;;;;;;;13.82;100.00;100169.69;4808436;29;20042;-86
2023/05/23 02:13:12;;;;;;;6.22;3.97;;;;;;;13.87;100.00;100170.47;4808166;29;20038;-84
2023/05/23 02:15:37;;;;;;;6.65;4.25;;;;;;;14.26;100.00;100240.13;4825055;29;20022;-86
2023/05/23 02:18:03;;;;;;;7.03;3.22;;;;;;;14.04;100.00;100197.41;4799605;29;20495;-86
2023/05/23 02:20:28;;;;;;;6.72;4.82;;;;;;;13.87;100.00;100175.75;4822101;29;20069;-86
2023/05/23 02:22:54;;;;;;;8.65;4.10;;;;;;;14.02;100.00;100185.16;4824746;29;20038;-87
2023/05/23 02:25:19;;;;;;;10.60;3.75;;;;;;;14.36;100.00;100243.47;4824707;29;20499;-85
2023/05/23 02:27:45;;;;;;;6.20;4.20;;;;;;;14.22;100.00;100216.47;4824869;29;20417;-86
2023/05/23 02:30:10;;;;;;;6.25;3.70;;;;;;;14.27;100.00;100191.72;4793805;29;20038;-87
2023/05/23 02:32:36;;;;;;;5.32;3.42;;;;;;;14.70;100.00;100248.13;4810795;29;20055;-87
2023/05/23 02:35:02;;;;;;;6.07;3.63;;;;;;;14.64;100.00;100229.78;4790649;29;20324;-86
2023/05/23 02:37:28;;;;;;;6.22;4.20;;;;;;;14.67;100.00;100225.31;4790457;29;20478;-87
2023/05/23 02:39:54;;;;;;;6.05;3.72;;;;;;;14.73;100.00;100248.09;4806121;29;20038;-86
2023/05/23 02:42:20;;;;;;;8.88;3.65;;;;;;;14.80;100.00;100259.38;4807102;29;20033;-87
2023/05/23 02:44:45;;;;;;;5.10;2.83;;;;;;;14.50;100.00;100206.25;4806183;29;20027;-85
2023/05/23 02:47:11;;;;;;;7.47;3.60;;;;;;;14.37;100.00;100245.19;4805894;29;20037;-85
2023/05/23 02:49:36;;;;;;;6.10;3.05;;;;;;;14.10;100.00;100209.66;4805973;29;20042;-85
2023/05/23 02:52:01;;;;;;;5.47;3.67;;;;;;;14.46;100.00;100257.38;4805879;29;20060;-86
2023/05/23 02:54:27;;;;;;;6.78;4.30;;;;;;;14.19;100.00;100259.63;4811004;29;20038;-86
2023/05/23 02:56:53;;;;;;;6.28;3.88;;;;;;;13.71;100.00;100186.53;4821484;29;20034;-86
2023/05/23 02:59:20;;;;;;;9.02;4.32;;;;;;;14.17;100.00;100258.78;4792432;29;20031;-86
2023/05/23 03:01:46;;;;;;;7.07;4.13;;;;;;;14.17;100.00;100235.03;4807907;29;20031;-89
2023/05/23 03:04:12;;;;;;;4.47;3.28;;;;;;;14.11;100.00;100259.72;4807511;29;20763;-88
2023/05/23 03:06:38;;;;;;;8.48;3.25;;;;;;;13.90;100.00;100231.94;4788788;29;20035;-89
2023/05/23 03:09:04;;;;;;;5.22;3.40;;;;;;;14.17;100.00;100269.31;4806383;29;20033;-89
2023/05/23 03:11:30;;;;;;;7.22;3.70;;;;;;;13.85;100.00;100209.19;4806618;29;20023;-89
2023/05/23 03:13:55;;;;;;;5.05;2.97;;;;;;;14.22;100.00;100267.47;4806194;29;20531;-88
2023/05/23 03:16:22;;;;;;;5.70;2.95;;;;;;;14.02;100.00;100256.38;4806550;29;20030;-88
2023/05/23 03:18:48;;;;;;;4.55;3.25;;;;;;;13.92;100.00;100221.38;4806126;29;20140;-88
2023/05/23 03:21:13;;;;;;;6.53;3.53;;;;;;;14.18;100.00;100275.47;4805726;29;20477;-89
2023/05/23 03:23:39;;;;;;;6.63;3.83;;;;;;;14.25;100.00;100274.47;4805305;29;20027;-88
2023/05/23 03:26:05;;;;;;;3.60;2.70;;;;;;;13.95;100.00;100245.06;4805391;29;20034;-88
2023/05/23 03:28:31;;;;;;;5.18;3.47;;;;;;;13.83;100.00;100214.47;4805662;29;20483;-88
2023/05/23 03:30:57;;;;;;;4.80;3.15;;;;;;;14.29;100.00;100273.53;4805265;29;20037;-87
2023/05/23 03:33:23;;;;;;;5.18;3.35;;;;;;;14.40;100.00;100283.88;4823094;29;20042;-85
2023/05/23 03:35:49;;;;;;;6.53;3.13;;;;;;;14.31;100.00;100284.94;4815712;29;20447;-85
2023/05/23 03:38:15;;;;;;;5.15;3.72;;;;;;;14.32;100.00;100299.84;4823341;29;20042;-86
2023/05/23 03:40:40;;;;;;;5.68;2.97;;;;;;;14.51;100.00;100292.47;4822753;29;20176;-86
2023/05/23 03:43:07;;;;;;;4.18;2.70;;;;;;;14.14;100.00;100264.06;4806533;29;20478;-88
2023/05/23 03:45:33;;;;;;;5.10;3.55;;;;;;;14.39;100.00;100283.00;4823027;29;20042;-88
2023/05/23 03:47:59;;;;;;;7.80;4.85;;;;;;;14.61;100.00;100303.78;4792295;29;20049;-87
2023/05/23 03:50:25;;;;;;;4.28;3.22;;;;;;;14.51;100.00;100305.69;4823973;29;20041;-88
2023/05/23 03:52:50;;;;;;;6.28;4.78;;;;;;;14.61;100.00;100304.66;4824058;29;20503;-87
2023/05/23 03:55:20;;;;;;;6.80;3.33;;;;;;;14.55;100.00;100304.75;4807340;29;20050;-86
2023/05/23 03:57:46;;;;;;;6.35;4.88;;;;;;;14.78;100.00;100318.41;4808638;29;20030;-87
2023/05/23 04:00:12;;;;;;;6.25;3.63;;;;;;;14.93;100.00;100325.16;4823791;29;20436;-85
2023/05/23 04:02:39;;;;;;;5.35;3.60;;;;;;;14.52;100.00;100273.97;4823943;29;20053;-86
2023/05/23 04:05:05;;;;;;;6.78;4.32;;;;;;;14.80;100.00;100328.06;4807115;29;20045;-87
2023/05/23 04:07:33;;;;;;;8.25;4.07;;;;;;;14.68;100.00;100311.56;4819847;29;20036;-85
2023/05/23 04:09:59;;;;;;;6.75;4.70;;;;;;;14.61;100.00;100299.38;4806997;29;20038;-85
2023/05/23 04:12:25;;;;;;;5.85;3.28;;;;;;;14.51;100.00;100269.56;4808044;29;20034;-87
2023/05/23 04:14:51;;;;;;;6.25;4.20;;;;;;;14.97;100.00;100339.22;4824901;29;20061;-87
2023/05/23 04:17:17;;;;;;;4.65;2.83;;;;;;;14.82;100.00;100313.97;4823920;29;20398;-88
2023/05/23 04:19:43;;;;;;;6.97;3.42;;;;;;;14.95;100.00;100355.06;4823564;29;20045;-90
2023/05/23 04:22:09;;;;;;;6.20;3.50;;;;;;;14.92;100.00;100320.78;4819112;29;20033;-88
2023/05/23 04:24:35;;;;;;;6.40;4.53;;;;;;;14.94;100.00;100307.56;4822724;29;20030;-89
2023/05/23 04:27:01;;;;;;;5.00;3.42;;;;;;;15.26;100.00;100356.25;4816522;29;20027;-89
2023/05/23 04:29:30;;;;;;;6.57;3.97;;;;;;;14.86;100.00;100306.81;4805391;29;20037;-87
2023/05/23 04:31:56;;;;;;;6.10;3.63;;;;;;;15.07;100.00;100332.81;4827669;29;20375;-88
2023/05/23 04:34:21;;;;;;;4.60;2.63;;;;;;;15.09;100.00;100287.88;4828344;29;20041;-87
2023/05/23 04:36:48;;;;;;;5.43;3.42;;;;;;;15.34;100.00;100322.63;4823571;29;20099;-87
2023/05/23 04:39:14;;;;;;;4.88;3.05;;;;;;;15.48;100.00;100360.22;4823027;29;20033;-87
2023/05/23 04:41:40;;;;;;;5.13;3.20;;;;;;;14.89;100.00;100278.59;4822509;29;20030;-89
2023/05/23 04:44:08;;;;;;;5.43;3.22;;;;;;;15.74;100.00;100370.25;4822895;29;20406;-87
2023/05/23 04:46:35;;;;;;;4.97;3.28;;;;;;;15.67;100.00;100338.66;4823498;29;20034;-87
2023/05/23 04:49:01;;;;;;;5.35;3.83;;;;;;;15.99;100.00;100367.03;4823164;29;20026;-89
2023/05/23 04:51:26;;;;;;;9.20;4.00;;;;;;;15.65;100.00;100309.59;4818351;29;20104;-87
2023/05/23 04:53:52;;;;;;;5.25;3.38;;;;;;;16.12;100.00;100368.50;4823563;29;20132;-88
2023/05/23 04:56:19;;;;;;;6.60;3.33;;;;;;;15.87;100.00;100298.53;4824319;29;20478;-87
2023/05/23 04:58:45;;;;;;;5.30;3.40;;;;;;;15.93;100.00;100296.63;4824861;29;20381;-88
2023/05/23 05:01:11;;;;;;;6.85;4.05;;;;;;;16.25;100.00;100319.66;4808115;29;20478;-88
2023/05/23 05:03:36;;;;;;;4.78;2.88;;;;;;;16.44;100.00;100292.72;4815695;29;20037;-87
2023/05/23 05:06:03;;;;;;;6.72;3.85;;;;;;;17.22;100.00;100362.16;4812108;29;20067;-88
2023/05/23 05:08:28;;;;;;;5.40;4.15;;;;;;;17.17;100.00;100313.69;4806728;29;20027;-86
2023/05/23 05:10:54;;;;;;;9.48;4.45;;;;;;;17.55;100.00;100316.13;4823262;29;20093;-87
2023/05/23 05:13:20;;;;;;;5.65;3.20;;;;;;;18.14;100.00;100322.25;4805973;29;20148;-87
2023/05/23 05:15:46;;;;;;;11.55;4.30;;;;;;;18.89;100.00;100387.97;4799619;29;20043;-87
2023/05/23 05:18:12;;;;;;;6.53;3.65;;;;;;;19.22;100.00;100353.09;4822742;29;20038;-87
2023/05/23 05:20:37;;;;;;;5.28;3.42;;;;;;;19.09;100.00;100331.41;4823308;29;20085;-87
2023/05/23 05:23:03;;;;;;;6.38;3.50;;;;;;;19.66;100.00;100341.72;4826480;29;20113;-87
2023/05/23 05:25:31;;;;;;;3.63;2.67;;;;;;;19.71;100.00;100316.66;4817885;29;20035;-86
2023/05/23 05:28:04;;;;;;;5.03;3.38;;;;;;;20.53;100.00;100388.84;4821762;29;20106;-86
2023/05/23 05:30:33;;;;;;;4.78;3.15;;;;;;;20.18;100.00;100384.97;4833712;29;20501;-88
2023/05/23 05:33:03;;;;;;;8.30;3.53;;;;;;;20.95;100.00;100389.78;4801222;29;20054;-87
2023/05/23 05:35:33;;;;;;;4.63;2.63;;;;;;;21.56;100.00;100399.56;4825203;29;20064;-86
2023/05/23 05:37:59;;;;;;;5.38;3.35;;;;;;;21.39;100.00;100394.97;4825374;29;20030;-86
2023/05/23 05:40:25;;;;;;;3.58;1.98;;;;;;;21.98;100.00;100391.34;4825708;29;20072;-87
2023/05/23 05:42:50;;;;;;;5.50;2.88;;;;;;;21.64;100.00;100355.56;4824230;29;20479;-87
2023/05/23 05:45:16;;;;;;;3.50;2.03;;;;;;;21.95;100.00;100387.97;4822181;29;20116;-87
2023/05/23 05:47:42;;;;;;;5.00;2.50;;;;;;;21.56;100.00;100400.44;4822085;29;20420;-76
2023/05/23 05:50:08;;;;;;;3.15;2.17;;;;;;;21.23;97.91;100378.75;4814705;29;20049;-79
2023/05/23 05:52:37;;;;;;;3.97;2.47;;;;;;;21.41;98.90;100331.72;4800553;29;20119;-79
2023/05/23 05:55:12;;;;;;;4.75;2.75;;;;;;;21.57;100.00;100401.31;4813315;29;20819;-79
2023/05/23 05:57:38;;;;;;;6.97;2.40;;;;;;;21.63;97.78;100382.31;4821391;29;20057;-78
2023/05/23 06:00:13;;;;;;;3.83;2.15;;;;;;;22.48;91.29;100385.38;4808867;29;20038;-79
2023/05/23 06:02:40;;;;;;;2.58;1.52;;;;;;;22.67;85.96;100374.63;4820544;29;20160;-79
2023/05/23 06:05:06;;;;;;;8.82;1.90;;;;;;;23.15;77.99;100394.47;4820103;29;20737;-79
2023/05/23 06:07:35;;;;;;;4.50;1.80;;;;;;;21.91;77.06;100380.13;4820936;29;20042;-80
2023/05/23 06:10:01;;;;;;;4.97;2.17;;;;;;;21.91;78.72;100347.16;4799848;29;20126;-77
2023/05/23 06:12:27;;;;;;;3.08;2.25;;;;;;;21.58;78.83;100350.50;4824729;29;20550;-79
2023/05/23 06:14:52;;;;;;;3.90;1.85;;;;;;;21.84;80.88;100391.13;4826302;29;20382;-78
2023/05/23 06:17:17;;;;;;;4.85;2.55;;;;;;;22.49;80.51;100375.56;4828420;29;20107;-78
2023/05/23 06:19:43;;;;;;;14.35;2.70;;;;;;;22.43;75.32;100291.16;4824772;29;20034;-79
2023/05/23 06:22:08;;;;;;;6.85;2.90;;;;;;;22.07;69.37;100336.59;4824621;29;20497;-79
2023/05/23 06:24:34;;;;;;;2.40;1.15;;;;;;;22.88;67.71;100386.03;4824215;29;20022;-78
2023/05/23 06:26:59;;;;;;;1.98;1.65;;;;;;;23.88;62.38;100390.59;4806269;29;20034;-80
2023/05/23 06:29:25;;;;;;;7.15;4.07;;;;;;;23.76;61.80;100381.41;4823031;29;20099;-79
2023/05/23 06:31:50;;;;;;;5.53;3.00;;;;;;;22.75;59.18;100401.84;4810748;29;20050;-78
2023/05/23 06:34:16;;;;;;;2.35;1.30;;;;;;;22.31;62.85;100385.34;4806719;29;20027;-78
2023/05/23 06:36:41;;;;;;;2.92;1.75;;;;;;;22.22;65.36;100383.13;4807077;29;20026;-79
2023/05/23 06:39:08;;;;;;;2.25;1.40;;;;;;;22.26;65.29;100328.56;4806424;29;20045;-80
2023/05/23 06:41:35;;;;;;;3.53;1.17;;;;;;;22.53;62.80;100390.50;4799141;29;20037;-79
2023/05/23 06:44:00;;;;;;;4.45;1.42;;;;;;;22.80;61.65;100385.56;4804414;29;20497;-78
2023/05/23 06:46:26;;;;;;;3.95;1.90;;;;;;;22.77;56.99;100383.91;4799419;29;20031;-79
2023/05/23 06:48:51;;;;;;;2.10;1.38;;;;;;;23.07;57.54;100385.13;4807934;29;20034;-79
2023/05/23 06:51:17;;;;;;;4.90;1.48;;;;;;;22.47;57.09;100386.31;4807447;29;20384;-79
2023/05/23 06:53:42;;;;;;;2.83;1.50;;;;;;;22.18;57.91;100382.38;4803430;29;20478;-78
2023/05/23 06:56:07;;;;;;;1.60;1.25;;;;;;;22.17;59.95;100367.28;4805614;29;20076;-79
2023/05/23 06:58:33;;;;;;;3.88;1.42;;;;;;;22.53;57.55;100339.69;4807866;29;20052;-79
2023/05/23 07:00:58;;;;;;;2.50;1.25;;;;;;;22.80;57.29;100371.31;4805822;29;20399;-80
2023/05/23 07:03:24;;;;;;;2.40;1.63;;;;;;;23.01;55.64;100346.13;4806434;29;20031;-80
2023/05/23 07:05:50;;;;;;;2.97;1.48;;;;;;;22.86;54.65;100321.03;4801421;29;20071;-80
2023/05/23 07:08:15;;;;;;;3.75;1.17;;;;;;;23.65;66.89;100349.84;4805722;29;20030;-77
2023/05/23 07:10:41;;;;;;;4.93;1.33;;;;;;;22.39;61.71;100353.75;4811764;29;20227;-79
2023/05/23 07:13:06;;;;;;;3.83;1.90;;;;;;;22.33;59.52;100357.59;4789223;29;20042;-79
2023/05/23 07:15:32;;;;;;;4.25;1.83;;;;;;;22.91;62.32;100350.22;4790081;29;20043;-80
2023/05/23 07:17:57;;;;;;;2.92;1.63;;;;;;;22.30;58.65;100354.22;4805619;29;20057;-79
2023/05/23 07:20:22;;;;;;;3.42;1.83;;;;;;;22.75;61.85;100356.34;4805864;29;20027;-80
2023/05/23 07:22:50;;;;;;;1.98;1.13;;;;;;;22.18;64.16;100279.97;4806268;29;20031;-80
2023/05/23 07:25:16;;;;;;;2.97;1.38;;;;;;;22.07;79.51;100284.00;4805707;29;20030;-82
2023/05/23 07:27:41;;;;;;;2.70;1.30;;;;;;;22.76;61.54;100350.09;4805501;29;20045;-80
2023/05/23 07:30:08;;;;;;;2.63;1.42;;;;;;;22.65;64.08;100343.56;4803499;29;20039;-79
2023/05/23 07:32:34;;;;;;;3.10;1.60;;;;;;;21.99;57.25;100345.00;4817948;29;20130;-79
2023/05/23 07:35:00;;;;;;;3.42;2.22;;;;;;;22.44;61.80;100345.50;4806890;29;20565;-79
2023/05/23 07:37:26;;;;;;;7.93;2.65;;;;;;;22.99;61.43;100344.50;4806337;29;20118;-78
2023/05/23 07:39:52;;;;;;;2.78;2.03;;;;;;;22.72;61.10;100347.66;4823135;29;20030;-79
2023/05/23 07:42:17;;;;;;;4.72;2.60;;;;;;;22.57;58.33;100349.31;4823151;29;20030;-79
2023/05/23 07:44:43;;;;;;;2.65;1.58;;;;;;;22.25;55.62;100353.59;4822923;29;20023;-80
2023/05/23 07:47:08;;;;;;;8.40;5.00;;;;;;;22.80;61.46;100347.25;4823715;29;20058;-79
2023/05/23 07:49:34;;;;;;;3.67;2.55;;;;;;;22.53;58.32;100359.28;4820411;29;20044;-79
2023/05/23 07:52:00;;;;;;;5.82;2.88;;;;;;;22.22;57.97;100279.75;4807193;29;20043;-80
2023/05/23 07:54:25;;;;;;;3.85;2.00;;;;;;;22.26;56.64;100355.31;4823472;29;20031;-79
2023/05/23 07:56:52;;;;;;;5.50;3.67;;;;;;;23.11;59.10;100349.22;4822771;29;20078;-79
2023/05/23 07:59:18;;;;;;;8.27;5.05;;;;;;;23.27;59.28;100351.91;4823083;29;20129;-79
2023/05/23 08:01:43;;;;;;;3.35;1.77;;;;;;;23.01;58.69;100351.50;4822089;29;20560;-79
2023/05/23 08:04:09;;;;;;;9.90;7.50;;;;;;;22.71;60.56;100341.44;4806972;29;20031;-79
2023/05/23 08:06:34;;;;;;;11.00;7.60;;;;;;;22.78;61.09;100342.00;4828505;29;20443;-83
2023/05/23 08:09:00;;;;;;;5.82;2.97;;;;;;;22.66;59.06;100311.34;4823628;29;20030;-79
2023/05/23 08:11:27;;;;;;;6.07;1.77;;;;;;;22.84;57.35;100330.09;4805251;29;20143;-78
2023/05/23 08:13:53;;;;;;;15.85;8.57;;;;;;;22.77;60.74;100351.78;4817086;29;20743;-78
2023/05/23 08:16:18;;;;;;;6.05;3.53;;;;;;;23.19;59.60;100280.06;4794791;29;20046;-78
2023/05/23 08:18:44;;;;;;;2.33;1.48;;;;;;;23.68;58.01;100322.00;4805455;29;20030;-79
2023/05/23 08:21:09;;;;;;;2.58;1.88;;;;;;;22.69;59.81;100310.34;4821234;29;20455;-78
2023/05/23 08:23:35;;;;;;;8.30;6.30;;;;;;;23.04;63.66;100345.13;4822728;29;20034;-78
2023/05/23 08:26:00;;;;;;;5.70;3.55;;;;;;;23.02;60.68;100325.63;4790505;29;20387;-79
2023/05/23 08:28:26;;;;;;;5.38;3.05;;;;;;;22.81;60.09;100311.53;4822960;29;20038;-75
2023/05/23 08:30:52;;;;;;;3.90;2.00;;;;;;;23.52;57.87;100340.75;4821789;29;20041;-77
2023/05/23 08:33:18;;;;;;;5.05;3.05;;;;;;;23.54;58.50;100349.56;4803555;29;20046;-73
2023/05/23 08:35:43;;;;;;;2.90;1.58;;;;;;;23.19;59.25;100336.28;4802808;29;20038;-75
2023/05/23 08:38:09;;;;;;;2.45;1.30;;;;;;;23.01;58.78;100313.16;4814923;29;20066;-78
2023/05/23 08:40:35;;;;;;;3.10;1.48;;;;;;;23.05;59.53;100301.34;4802783;29;20039;-78
2023/05/23 08:43:01;;;;;;;2.72;1.65;;;;;;;23.21;60.45;100336.22;4801709;29;20348;-78
2023/05/23 08:45:29;;;;;;;4.00;2.92;;;;;;;23.69;61.84;100316.56;4822718;29;20034;-76
2023/05/23 08:47:55;;;;;;;4.13;1.90;;;;;;;24.29;59.03;100318.53;4822382;29;20022;-78
2023/05/23 08:50:21;;;;;;;3.08;1.63;;;;;;;23.75;57.75;100299.31;4822229;29;20475;-77
2023/05/23 08:52:57;;;;;;;4.07;1.58;;;;;;;24.18;58.89;100323.66;4821531;29;20034;-78
2023/05/23 08:55:29;;;;;;;2.38;1.42;;;;;;;24.05;57.68;100328.00;4813692;29;20065;-78
2023/05/23 08:58:00;;;;;;;4.78;3.30;;;;;;;23.48;58.77;100337.34;4822747;29;20058;-77
2023/05/23 09:00:26;;;;;;;1.77;1.50;;;;;;;23.49;59.72;100328.41;4822455;29;20105;-77
2023/05/23 09:02:53;;;;;;;3.83;2.15;;;;;;;24.16;62.56;100315.72;4821968;29;20038;-78
2023/05/23 09:05:19;;;;;;;3.35;1.85;;;;;;;24.57;59.45;100336.56;4829316;29;20374;-78
2023/05/23 09:07:46;;;;;;;2.13;1.70;;;;;;;23.57;61.74;100325.28;4815712;29;20037;-76
2023/05/23 09:10:13;;;;;;;2.65;1.80;;;;;;;23.22;60.99;100309.31;4825713;29;20081;-83
2023/05/23 09:12:38;;;;;;;13.02;1.75;;;;;;;23.44;59.57;100330.47;4822141;29;20030;-84
2023/05/23 09:15:06;;;;;;;2.15;1.25;;;;;;;24.16;59.50;100317.50;4829246;29;20049;-82
2023/05/23 09:17:32;;;;;;;2.42;1.00;;;;;;;24.88;59.41;100315.06;4826062;29;20026;-81
2023/05/23 09:19:59;;;;;;;3.72;1.58;;;;;;;25.44;54.73;100271.25;4811250;29;20050;-82
2023/05/23 09:22:25;;;;;;;4.07;1.63;;;;;;;24.60;58.00;100288.06;4812948;29;20428;-84
2023/05/23 09:24:52;;;;;;;3.05;1.65;;;;;;;24.37;59.30;100278.72;4833389;29;20052;-82
2023/05/23 09:27:18;;;;;;;12.85;2.30;;;;;;;24.75;57.10;100314.97;4830076;29;20038;-83
2023/05/23 09:29:46;;;;;;;2.78;1.50;;;;;;;24.14;58.11;100309.56;4828623;29;20057;-83
2023/05/23 09:32:13;;;;;;;3.20;1.70;;;;;;;24.58;55.87;100292.69;4825590;29;20054;-83
2023/05/23 09:34:54;;;;;;;3.42;1.98;;;;;;;24.33;56.92;100309.34;4828880;29;20034;-77
2023/05/23 09:37:23;;;;;;;1.73;1.25;;;;;;;24.04;56.63;100311.03;4816749;29;20022;-76
2023/05/23 09:39:49;;;;;;;2.47;1.33;;;;;;;24.03;54.81;100312.00;4824738;29;20038;-76
2023/05/23 09:42:21;;;;;;;3.47;1.35;;;;;;;24.35;55.56;100312.81;4821867;29;20030;-77
2023/05/23 09:44:47;;;;;;;2.30;1.25;;;;;;;24.37;53.98;100310.91;4824966;29;20042;-76
2023/05/23 09:47:15;;;;;;;3.88;1.42;;;;;;;24.80;54.63;100302.97;4825347;29;20096;-77
2023/05/23 09:49:43;;;;;;;6.65;1.65;;;;;;;24.41;54.41;100292.78;4824145;29;20038;-77
2023/05/23 09:52:09;;;;;;;5.20;2.17;;;;;;;24.74;56.66;100291.75;4822965;29;20070;-77
2023/05/23 09:54:35;;;;;;;2.97;1.27;;;;;;;25.01;57.11;100299.94;4806211;29;20038;-77
2023/05/23 09:57:03;;;;;;;2.60;1.42;;;;;;;25.17;52.72;100275.66;4823746;29;20474;-76
2023/05/23 09:59:31;;;;;;;5.22;2.30;;;;;;;25.52;51.12;100275.28;4825172;29;20034;-78
2023/05/23 10:01:58;;;;;;;4.05;2.10;;;;;;;26.18;53.44;100285.28;4821114;29;20037;-77
2023/05/23 10:04:24;;;;;;;4.53;2.17;;;;;;;26.41;49.54;100291.81;4824192;29;20034;-76
2023/05/23 10:07:01;;;;;;;2.40;1.67;;;;;;;26.13;49.86;100294.59;4814633;29;20122;-76
2023/05/23 10:09:32;;;;;;;2.92;1.45;;;;;;;26.68;48.78;100272.03;4817937;29;20379;-78
2023/05/23 10:12:31;;;;;;;2.65;0.93;;;;;;;25.57;50.36;100294.66;4825135;29;20038;-78
2023/05/23 10:15:02;;;;;;;2.45;1.13;;;;;;;25.50;51.36;100227.03;4822004;29;20034;-77
2023/05/23 10:17:39;;;;;;;3.20;1.85;;;;;;;26.15;49.18;100290.84;4806750;29;20478;-76
2023/05/23 10:20:11;;;;;;;2.83;1.50;;;;;;;25.02;49.27;100258.69;4825472;29;20109;-77
2023/05/23 10:22:37;;;;;;;2.42;1.30;;;;;;;25.42;50.32;100261.56;4817968;29;20105;-76
2023/05/23 10:25:04;;;;;;;2.15;1.05;;;;;;;26.03;49.99;100283.59;4830767;29;20061;-76
2023/05/23 10:27:30;;;;;;;2.00;1.45;;;;;;;26.00;51.22;100281.13;4824287;29;20108;-76
2023/05/23 10:29:57;;;;;;;3.53;1.65;;;;;;;26.04;49.93;100278.13;4825528;29;20030;-78
2023/05/23 10:32:24;;;;;;;2.33;1.33;;;;;;;26.99;46.99;100254.59;4824166;29;20061;-80
2023/05/23 10:35:08;;;;;;;2.22;1.40;;;;;;;26.98;47.60;100269.03;4809174;29;20104;-77
2023/05/23 10:38:03;;;;;;;2.15;1.00;;;;;;;26.22;48.13;100273.34;4819269;29;20113;-78
2023/05/23 10:41:02;;;;;;;3.72;1.85;;;;;;;24.98;48.77;100282.22;4825356;29;20030;-78
2023/05/23 10:43:46;;;;;;;2.75;1.42;;;;;;;26.14;48.63;100275.69;4815347;29;20034;-78
2023/05/23 10:46:14;;;;;;;2.33;1.27;;;;;;;26.08;48.09;100254.56;4825058;29;20118;-78
2023/05/23 10:48:42;;;;;;;4.78;1.50;;;;;;;25.55;48.83;100262.50;4825212;29;20027;-79
2023/05/23 10:51:13;;;;;;;2.35;1.30;;;;;;;25.74;48.67;100270.22;4824693;29;20034;-78
2023/05/23 10:53:53;;;;;;;1.92;1.08;;;;;;;25.89;49.79;100268.38;4825237;29;20467;-78
2023/05/23 10:56:23;;;;;;;3.20;1.88;;;;;;;24.97;48.48;100024.56;4823349;29;20038;-77
2023/05/23 10:58:53;;;;;;;2.42;1.60;;;;;;;25.45;49.67;100237.19;4820360;29;20442;-77
2023/05/23 11:01:19;;;;;;;1.77;1.05;;;;;;;25.77;48.50;100210.03;4822687;29;20486;-77
2023/05/23 11:03:45;;;;;;;2.78;1.55;;;;;;;25.23;49.42;100265.44;4824289;29;20032;-79
2023/05/23 11:06:27;;;;;;;7.07;1.45;;;;;;;26.14;48.60;100259.53;4809934;29;20033;-77
2023/05/23 11:09:04;;;;;;;2.97;1.85;;;;;;;25.74;51.65;100237.13;4808054;29;20029;-78
2023/05/23 11:12:03;;;;;;;2.38;1.25;;;;;;;26.00;48.13;100260.47;4824473;29;20069;-77
2023/05/23 11:14:32;;;;;;;3.75;1.70;;;;;;;26.21;47.49;100254.63;4823360;29;20049;-79
2023/05/23 11:16:59;;;;;;;1.80;1.25;;;;;;;24.95;49.96;100252.84;4835248;29;20169;-77
2023/05/23 11:19:29;;;;;;;1.73;0.98;;;;;;;25.60;48.17;100246.94;4825584;29;20057;-78
2023/05/23 11:21:58;;;;;;;2.75;1.40;;;;;;;24.93;49.20;100256.59;4830544;29;20159;-78
2023/05/23 11:24:53;;;;;;;4.30;1.98;;;;;;;25.15;49.93;100258.81;4827944;29;20034;-78